createdAt,value
2019-03-04T00:00:27.947Z,62.40
2019-03-04T00:02:54.745Z,62.30
2019-03-04T00:05:21.471Z,63.10
2019-03-04T00:07:48.190Z,63.00
2019-03-04T00:10:15.008Z,62.70
2019-03-04T00:12:41.714Z,62.30
2019-03-04T00:15:08.554Z,62.70
2019-03-04T00:17:35.637Z,62.90
2019-03-04T00:20:05.489Z,62.70
2019-03-04T00:22:32.225Z,62.10
2019-03-04T00:24:59.024Z,63.00
2019-03-04T00:27:25.767Z,63.00
2019-03-04T00:29:52.500Z,63.20
2019-03-04T00:32:19.267Z,63.10
2019-03-04T00:34:45.994Z,63.30
2019-03-04T00:37:12.748Z,63.30
2019-03-04T00:39:39.653Z,63.40
2019-03-04T00:42:06.404Z,63.10
2019-03-04T00:44:33.143Z,62.90
2019-03-04T00:46:59.913Z,62.60
2019-03-04T00:49:26.642Z,62.20
2019-03-04T00:51:54.103Z,62.00
2019-03-04T00:54:20.873Z,61.90
2019-03-04T00:56:47.617Z,61.90
2019-03-04T00:59:14.341Z,62.20
2019-03-04T01:01:41.094Z,62.30
2019-03-04T01:04:07.835Z,62.40
2019-03-04T01:06:34.621Z,62.30
2019-03-04T01:09:01.360Z,62.30
2019-03-04T01:11:28.088Z,61.60
2019-03-04T01:13:54.900Z,61.90
2019-03-04T01:16:21.621Z,62.00
2019-03-04T01:18:48.357Z,62.40
2019-03-04T01:21:15.138Z,62.40
2019-03-04T01:23:41.873Z,62.40
2019-03-04T01:26:08.666Z,61.90
2019-03-04T01:28:35.396Z,61.70
2019-03-04T01:31:02.148Z,61.80
2019-03-04T01:33:28.932Z,62.30
2019-03-04T01:35:55.667Z,62.20
2019-03-04T01:38:22.415Z,62.80
2019-03-04T01:40:52.460Z,62.80
2019-03-04T01:43:19.181Z,62.90
2019-03-04T01:45:45.929Z,63.00
2019-03-04T01:48:12.709Z,63.10
2019-03-04T01:50:39.422Z,62.90
2019-03-04T01:53:06.211Z,63.20
2019-03-04T01:55:32.935Z,62.60
2019-03-04T01:57:59.669Z,63.30
2019-03-04T02:00:26.551Z,62.90
2019-03-04T02:02:53.278Z,63.30
2019-03-04T02:05:20.009Z,63.20
2019-03-04T02:07:46.800Z,63.70
2019-03-04T02:10:18.407Z,63.90
2019-03-04T02:12:46.180Z,63.50
2019-03-04T02:15:18.191Z,63.80
2019-03-04T02:17:45.141Z,63.90
2019-03-04T02:20:16.708Z,63.70
2019-03-04T02:22:44.126Z,64.00
2019-03-04T02:25:13.838Z,64.00
2019-03-04T02:27:51.473Z,64.00
2019-03-04T02:30:25.780Z,63.50
2019-03-04T02:32:52.522Z,64.00
2019-03-04T02:35:19.223Z,64.50
2019-03-04T02:37:46.026Z,64.50
2019-03-04T02:40:12.770Z,64.60
2019-03-04T02:42:39.531Z,64.20
2019-03-04T02:45:17.706Z,63.90
2019-03-04T02:47:44.524Z,63.80
2019-03-04T02:50:11.339Z,64.00
2019-03-04T02:52:38.110Z,63.80
2019-03-04T02:55:06.530Z,63.60
2019-03-04T02:57:33.398Z,63.40
2019-03-04T03:00:00.214Z,63.20
2019-03-04T03:02:27.239Z,63.70
2019-03-04T03:04:54.064Z,63.70
2019-03-04T03:07:20.799Z,63.70
2019-03-04T03:09:47.623Z,63.10
2019-03-04T03:12:14.481Z,63.40
2019-03-04T03:14:41.207Z,63.20
2019-03-04T03:17:07.957Z,63.50
2019-03-04T03:19:34.810Z,63.30
2019-03-04T03:22:01.526Z,63.10
2019-03-04T03:24:28.337Z,63.30
2019-03-04T03:26:55.074Z,63.20
2019-03-04T03:29:21.810Z,63.30
2019-03-04T03:31:48.694Z,63.20
2019-03-04T03:34:15.423Z,63.10
2019-03-04T03:36:42.175Z,63.20
2019-03-04T03:39:08.940Z,63.30
2019-03-04T03:41:35.653Z,63.30
2019-03-04T03:44:02.704Z,63.00
2019-03-04T03:46:29.455Z,63.20
2019-03-04T03:48:56.184Z,63.40
2019-03-04T03:51:22.932Z,63.70
2019-03-04T03:53:49.656Z,63.20
2019-03-04T03:56:16.460Z,63.70
2019-03-04T03:58:43.193Z,63.80
2019-03-04T04:01:09.938Z,64.10
2019-03-04T04:03:36.704Z,64.10
2019-03-04T04:06:03.435Z,63.80
2019-03-04T04:08:30.226Z,63.80
2019-03-04T04:10:56.953Z,63.50
2019-03-04T04:13:23.680Z,63.70
2019-03-04T04:15:50.480Z,64.10
2019-03-04T04:18:17.217Z,64.30
2019-03-04T04:20:43.943Z,64.40
2019-03-04T04:23:10.738Z,64.40
2019-03-04T04:25:37.492Z,63.80
2019-03-04T04:28:04.221Z,63.50
2019-03-04T04:30:31.005Z,63.60
2019-03-04T04:32:57.748Z,63.40
2019-03-04T04:35:24.471Z,63.90
2019-03-04T04:37:51.274Z,64.10
2019-03-04T04:40:17.994Z,64.00
2019-03-04T04:42:44.998Z,63.90
2019-03-04T04:45:12.059Z,63.90
2019-03-04T04:47:41.193Z,64.00
2019-03-04T04:50:18.552Z,63.90
2019-03-04T04:52:45.253Z,64.30
2019-03-04T04:55:12.027Z,64.50
2019-03-04T04:57:38.762Z,64.40
2019-03-04T05:00:15.638Z,64.30
2019-03-04T05:02:42.516Z,64.50
2019-03-04T05:05:09.331Z,64.30
2019-03-04T05:07:36.041Z,64.30
2019-03-04T05:10:13.430Z,64.30
2019-03-04T05:12:40.157Z,64.10
2019-03-04T05:15:10.659Z,64.20
2019-03-04T05:17:39.650Z,64.10
2019-03-04T05:20:16.068Z,62.70
2019-03-04T05:22:42.821Z,63.10
2019-03-04T05:25:09.649Z,62.50
2019-03-04T05:27:36.430Z,62.70
2019-03-04T05:30:08.085Z,62.80
2019-03-04T05:32:34.814Z,62.80
2019-03-04T05:35:01.569Z,62.70
2019-03-04T05:37:28.309Z,62.70
2019-03-04T05:39:55.205Z,62.40
2019-03-04T05:42:21.935Z,62.60
2019-03-04T05:44:48.739Z,62.60
2019-03-04T05:47:15.627Z,62.60
2019-03-04T05:49:42.338Z,62.30
2019-03-04T05:52:09.062Z,62.50
2019-03-04T05:54:35.833Z,62.20
2019-03-04T05:57:02.571Z,61.80
2019-03-04T05:59:29.287Z,61.60
2019-03-04T06:02:01.487Z,61.30
2019-03-04T06:04:28.212Z,61.60
2019-03-04T06:06:54.942Z,61.90
2019-03-04T06:09:22.143Z,62.10
2019-03-04T06:11:48.885Z,62.40
2019-03-04T06:14:15.613Z,62.30
2019-03-04T06:16:47.193Z,62.30
2019-03-04T06:19:12.745Z,62.30
2019-03-04T06:21:50.069Z,62.40
2019-03-04T06:24:18.608Z,62.20
2019-03-04T06:26:45.360Z,61.80
2019-03-04T06:29:14.008Z,62.20
2019-03-04T06:31:40.746Z,62.30
2019-03-04T06:34:07.468Z,62.50
2019-03-04T06:36:34.290Z,63.60
2019-03-04T06:39:09.993Z,62.90
2019-03-04T06:41:36.775Z,62.70
2019-03-04T06:44:03.507Z,62.70
2019-03-04T06:46:30.294Z,63.00
2019-03-04T06:48:57.106Z,63.00
2019-03-04T06:51:31.360Z,62.70
2019-03-04T06:54:12.494Z,62.80
2019-03-04T06:56:56.160Z,63.00
2019-03-04T06:59:47.581Z,62.90
2019-03-04T07:02:31.650Z,63.20
2019-03-04T07:05:44.448Z,63.10
2019-03-04T07:08:37.892Z,62.90
2019-03-04T07:11:04.975Z,63.00
2019-03-04T07:13:31.708Z,62.70
2019-03-04T07:15:58.442Z,63.40
2019-03-04T07:18:25.257Z,63.40
2019-03-04T07:20:51.968Z,63.20
2019-03-04T07:23:18.709Z,63.00
2019-03-04T07:25:45.494Z,63.90
2019-03-04T07:28:12.213Z,64.70
2019-03-04T07:30:38.942Z,63.90
2019-03-04T07:33:05.757Z,66.60
2019-03-04T07:35:32.469Z,68.00
2019-03-04T07:38:24.565Z,68.30
2019-03-04T07:40:51.286Z,68.20
2019-03-04T07:43:18.003Z,68.80
2019-03-04T07:45:44.915Z,68.90
2019-03-04T07:48:11.685Z,68.50
2019-03-04T07:50:38.532Z,68.20
2019-03-04T07:53:05.300Z,68.30
2019-03-04T07:55:32.023Z,68.70
2019-03-04T07:57:58.812Z,68.30
2019-03-04T08:00:25.545Z,68.90
2019-03-04T08:02:52.288Z,68.50
2019-03-04T08:05:19.079Z,68.40
2019-03-04T08:07:52.971Z,68.10
2019-03-04T08:10:36.849Z,68.10
2019-03-04T08:13:36.340Z,68.20
2019-03-04T08:16:03.377Z,68.10
2019-03-04T08:18:30.137Z,67.90
2019-03-04T08:20:56.936Z,67.50
2019-03-04T08:23:23.666Z,67.70
2019-03-04T08:25:50.472Z,67.80
2019-03-04T08:28:17.293Z,67.60
2019-03-04T08:30:44.028Z,67.60
2019-03-04T08:33:11.269Z,66.70
2019-03-04T08:35:38.060Z,66.40
2019-03-04T08:38:04.797Z,66.40
2019-03-04T08:40:31.535Z,66.40
2019-03-04T08:42:58.397Z,66.30
2019-03-04T08:45:25.227Z,66.20
2019-03-04T08:47:51.997Z,65.80
2019-03-04T08:50:18.876Z,65.70
2019-03-04T08:52:45.608Z,65.50
2019-03-04T08:55:17.104Z,65.60
2019-03-04T08:57:45.299Z,65.40
2019-03-04T09:00:25.000Z,65.40
2019-03-04T09:02:51.819Z,64.70
2019-03-04T09:05:18.565Z,64.70
2019-03-04T09:07:45.711Z,64.70
2019-03-04T09:10:22.118Z,64.70
2019-03-04T09:12:48.882Z,64.80
2019-03-04T09:15:16.231Z,64.70
2019-03-04T09:17:43.081Z,65.20
2019-03-04T09:20:12.539Z,64.70
2019-03-04T09:22:39.354Z,64.70
2019-03-04T09:25:17.434Z,64.70
2019-03-04T09:27:45.432Z,64.70
2019-03-04T09:30:14.981Z,65.00
2019-03-04T09:32:41.711Z,65.00
2019-03-04T09:35:15.207Z,64.70
2019-03-04T09:37:42.048Z,64.70
2019-03-04T09:40:13.961Z,65.00
2019-03-04T09:42:40.695Z,65.00
2019-03-04T09:45:11.234Z,65.20
2019-03-04T09:47:38.018Z,65.20
2019-03-04T09:50:10.221Z,64.00
2019-03-04T09:52:36.957Z,63.40
2019-03-04T09:55:04.471Z,63.10
2019-03-04T09:57:31.183Z,63.00
2019-03-04T09:59:57.926Z,63.00
2019-03-04T10:02:24.901Z,65.30
2019-03-04T10:05:13.388Z,63.20
2019-03-04T10:07:57.823Z,62.80
2019-03-04T10:10:35.893Z,62.40
2019-03-04T10:13:10.925Z,62.60
2019-03-04T10:15:51.427Z,62.30
2019-03-04T10:18:45.676Z,62.10
2019-03-04T10:21:51.964Z,64.00
2019-03-04T10:24:29.888Z,61.70
2019-03-04T10:27:17.075Z,61.40
2019-03-04T10:30:17.595Z,61.20
2019-03-04T10:33:04.669Z,61.20
2019-03-04T10:35:51.773Z,60.10
2019-03-04T10:38:29.519Z,60.30
2019-03-04T10:41:10.873Z,60.10
2019-03-04T10:44:07.252Z,60.30
2019-03-04T10:46:53.015Z,59.70
2019-03-04T10:49:19.880Z,60.00
2019-03-04T10:51:46.789Z,59.80
2019-03-04T10:54:13.551Z,59.80
2019-03-04T10:56:42.377Z,59.60
2019-03-04T10:59:09.004Z,59.50
2019-03-04T11:01:35.747Z,59.40
2019-03-04T11:04:02.501Z,58.80
2019-03-04T11:06:29.296Z,58.70
2019-03-04T11:08:56.011Z,59.20
2019-03-04T11:11:29.468Z,58.70
2019-03-04T11:13:51.375Z,58.90
2019-03-04T11:16:18.119Z,60.80
2019-03-04T11:18:44.895Z,59.10
2019-03-04T11:21:11.630Z,58.50
2019-03-04T11:23:38.534Z,57.70
2019-03-04T11:26:05.254Z,57.30
2019-03-04T11:28:32.021Z,56.00
2019-03-04T11:30:58.833Z,55.40
2019-03-04T11:33:25.981Z,54.60
2019-03-04T11:35:52.715Z,53.70
2019-03-04T11:38:45.173Z,53.20
2019-03-04T11:41:16.563Z,53.50
2019-03-04T11:43:43.463Z,53.00
2019-03-04T11:46:10.195Z,52.80
2019-03-04T11:48:36.923Z,52.60
2019-03-04T11:51:03.739Z,52.60
2019-03-04T11:53:30.527Z,52.00
2019-03-04T11:55:57.274Z,51.70
2019-03-04T11:58:24.163Z,51.00
2019-03-04T12:00:50.904Z,50.70
2019-03-04T12:03:17.717Z,50.90
2019-03-04T12:05:44.567Z,50.70
2019-03-04T12:08:11.311Z,50.50
2019-03-04T12:10:38.112Z,50.30
2019-03-04T12:13:05.835Z,50.00
2019-03-04T12:15:32.663Z,49.70
2019-03-04T12:17:59.465Z,49.30
2019-03-04T12:20:26.182Z,49.00
2019-03-04T12:22:53.074Z,48.40
2019-03-04T12:25:20.323Z,48.30
2019-03-04T12:27:47.154Z,47.70
2019-03-04T12:30:21.982Z,47.70
2019-03-04T12:32:51.002Z,47.40
2019-03-04T12:35:18.539Z,47.70
2019-03-04T12:37:45.452Z,46.20
2019-03-04T12:40:22.379Z,46.00
2019-03-04T12:42:54.596Z,45.30
2019-03-04T12:45:22.721Z,45.10
2019-03-04T12:47:49.660Z,46.60
2019-03-04T12:50:27.332Z,46.50
2019-03-04T12:52:57.510Z,46.20
2019-03-04T12:55:24.485Z,46.50
2019-03-04T12:57:51.263Z,47.80
2019-03-04T13:00:25.669Z,47.40
2019-03-04T13:02:57.477Z,47.40
2019-03-04T13:05:20.998Z,47.40
2019-03-04T13:07:47.821Z,47.40
2019-03-04T13:10:16.375Z,47.80
2019-03-04T13:12:43.486Z,48.20
2019-03-04T13:15:24.240Z,48.50
2019-03-04T13:17:51.030Z,48.90
2019-03-04T13:20:20.891Z,49.10
2019-03-04T13:22:47.637Z,49.10
2019-03-04T13:25:14.441Z,49.40
2019-03-04T13:27:42.098Z,49.40
2019-03-04T13:30:13.844Z,50.00
2019-03-04T13:32:40.765Z,50.50
2019-03-04T13:35:23.972Z,50.90
2019-03-04T13:37:43.459Z,51.00
2019-03-04T13:40:12.617Z,51.00
2019-03-04T13:42:39.346Z,51.80
2019-03-04T13:45:15.955Z,52.00
2019-03-04T13:47:43.222Z,52.00
2019-03-04T13:50:19.428Z,52.10
2019-03-04T13:52:46.157Z,51.70
2019-03-04T13:55:14.698Z,51.30
2019-03-04T13:57:41.559Z,51.70
2019-03-04T14:00:13.399Z,51.90
2019-03-04T14:02:40.124Z,52.40
2019-03-04T14:05:10.600Z,52.50
2019-03-04T14:07:37.428Z,52.60
2019-03-04T14:10:15.614Z,53.10
2019-03-04T14:12:42.372Z,53.20
2019-03-04T14:15:23.256Z,53.50
2019-03-04T14:17:49.994Z,53.20
2019-03-04T14:20:16.701Z,53.80
2019-03-04T14:22:43.511Z,54.40
2019-03-04T14:25:12.282Z,54.90
2019-03-04T14:27:39.022Z,55.20
2019-03-04T14:30:16.191Z,55.50
2019-03-04T14:32:43.013Z,55.80
2019-03-04T14:35:10.054Z,56.10
2019-03-04T14:37:36.824Z,56.30
2019-03-04T14:40:08.371Z,56.70
2019-03-04T14:42:35.265Z,56.20
2019-03-04T14:45:06.072Z,56.40
2019-03-04T14:47:32.806Z,56.70
2019-03-04T14:50:09.427Z,56.80
2019-03-04T14:52:28.230Z,57.10
2019-03-04T14:54:55.035Z,57.20
2019-03-04T14:57:22.731Z,57.70
2019-03-04T14:59:49.455Z,57.80
2019-03-04T15:02:16.326Z,58.20
2019-03-04T15:04:43.069Z,58.40
2019-03-04T15:07:09.791Z,58.60
2019-03-04T15:09:36.571Z,58.60
2019-03-04T15:12:03.296Z,58.80
2019-03-04T15:14:30.037Z,58.60
2019-03-04T15:17:03.250Z,59.40
2019-03-04T15:19:25.380Z,58.80
2019-03-04T15:21:52.108Z,58.80
2019-03-04T15:24:19.040Z,58.80
2019-03-04T15:26:45.770Z,58.90
2019-03-04T15:29:12.487Z,59.10
2019-03-04T15:31:39.292Z,59.30
2019-03-04T15:34:06.010Z,59.50
2019-03-04T15:36:32.744Z,59.70
2019-03-04T15:38:59.544Z,60.50
2019-03-04T15:41:26.285Z,60.10
2019-03-04T15:43:53.015Z,60.60
2019-03-04T15:46:19.827Z,61.50
2019-03-04T15:48:46.568Z,61.80
2019-03-04T15:51:13.321Z,61.90
2019-03-04T15:53:40.139Z,62.30
2019-03-04T15:56:06.860Z,63.00
2019-03-04T15:58:33.640Z,63.20
2019-03-04T16:01:02.349Z,63.30
2019-03-04T16:03:29.263Z,64.10
2019-03-04T16:05:56.117Z,64.50
2019-03-04T16:08:22.888Z,64.90
2019-03-04T16:10:49.604Z,65.30
2019-03-04T16:13:16.349Z,66.30
2019-03-04T16:15:45.854Z,66.80
2019-03-04T16:18:12.590Z,67.20
2019-03-04T16:20:39.327Z,67.80
2019-03-04T16:23:06.195Z,67.20
2019-03-04T16:25:33.339Z,66.90
2019-03-04T16:28:08.002Z,67.60
2019-03-04T16:30:34.838Z,67.70
2019-03-04T16:33:01.715Z,68.10
2019-03-04T16:35:28.459Z,68.90
2019-03-04T16:37:55.204Z,69.40
2019-03-04T16:40:23.998Z,69.60
2019-03-04T16:42:50.739Z,69.80
2019-03-04T16:45:22.048Z,69.90
2019-03-04T16:47:49.518Z,70.10
2019-03-04T16:50:24.534Z,69.90
2019-03-04T16:53:01.730Z,70.50
2019-03-04T16:55:28.458Z,70.70
2019-03-04T16:57:55.199Z,70.70
2019-03-04T17:00:22.022Z,70.90
2019-03-04T17:02:49.269Z,70.60
2019-03-04T17:05:17.565Z,70.70
2019-03-04T17:07:45.805Z,70.60
2019-03-04T17:10:18.284Z,71.00
2019-03-04T17:12:45.195Z,71.30
2019-03-04T17:15:20.327Z,71.30
2019-03-04T17:17:47.411Z,71.70
2019-03-04T17:20:16.535Z,72.00
2019-03-04T17:22:43.392Z,72.20
2019-03-04T17:25:22.043Z,72.30
2019-03-04T17:27:48.875Z,72.70
2019-03-04T17:30:19.578Z,73.00
2019-03-04T17:32:46.422Z,73.00
2019-03-04T17:35:17.764Z,74.10
2019-03-04T17:37:44.905Z,73.10
2019-03-04T17:40:16.354Z,74.00
2019-03-04T17:42:43.086Z,72.90
2019-03-04T17:45:13.182Z,73.30
2019-03-04T17:47:39.925Z,72.90
2019-03-04T17:50:17.550Z,73.10
2019-03-04T17:52:44.397Z,72.80
2019-03-04T17:55:13.541Z,71.80
2019-03-04T17:57:40.363Z,71.90
2019-03-04T18:00:11.787Z,72.10
2019-03-04T18:02:38.554Z,72.80
2019-03-04T18:05:08.500Z,74.30
2019-03-04T18:07:35.956Z,73.50
2019-03-04T18:10:07.440Z,74.00
2019-03-04T18:12:34.233Z,74.50
2019-03-04T18:15:00.963Z,74.20
2019-03-04T18:17:28.302Z,74.90
2019-03-04T18:19:55.054Z,74.90
2019-03-04T18:22:21.794Z,74.80
2019-03-04T18:24:48.603Z,75.00
2019-03-04T18:27:15.386Z,75.00
2019-03-04T18:29:53.353Z,75.10
2019-03-04T18:32:37.461Z,75.70
2019-03-04T18:35:38.276Z,75.70
2019-03-04T18:38:30.004Z,75.60
2019-03-04T18:41:17.508Z,75.80
2019-03-04T18:44:07.780Z,75.70
2019-03-04T18:46:49.212Z,75.70
2019-03-04T18:49:15.952Z,74.90
2019-03-04T18:51:42.680Z,75.90
2019-03-04T18:54:09.617Z,76.20
2019-03-04T18:56:36.395Z,76.20
2019-03-04T18:59:04.852Z,76.00
2019-03-04T19:01:32.026Z,76.20
2019-03-04T19:03:58.884Z,76.20
2019-03-04T19:06:25.804Z,76.20
2019-03-04T19:08:52.708Z,76.20
2019-03-04T19:11:19.704Z,76.10
2019-03-04T19:13:46.515Z,76.30
2019-03-04T19:16:13.254Z,77.10
2019-03-04T19:18:40.110Z,76.20
2019-03-04T19:21:07.026Z,76.50
2019-03-04T19:23:33.781Z,76.10
2019-03-04T19:26:00.730Z,75.70
2019-03-04T19:28:27.520Z,75.60
2019-03-04T19:30:54.265Z,75.80
2019-03-04T19:33:21.185Z,75.90
2019-03-04T19:35:47.943Z,75.90
2019-03-04T19:38:14.798Z,76.40
2019-03-04T19:40:41.611Z,76.40
2019-03-04T19:43:08.389Z,76.10
2019-03-04T19:45:35.160Z,76.10
2019-03-04T19:48:01.977Z,76.20
2019-03-04T19:50:29.125Z,76.30
2019-03-04T19:52:55.854Z,76.30
2019-03-04T19:55:22.690Z,76.10
2019-03-04T19:57:49.566Z,76.20
2019-03-04T20:00:25.031Z,76.30
2019-03-04T20:02:51.667Z,76.30
2019-03-04T20:05:19.334Z,76.50
2019-03-04T20:07:46.536Z,76.60
2019-03-04T20:10:15.759Z,76.80
2019-03-04T20:12:42.649Z,77.60
2019-03-04T20:15:29.178Z,77.20
2019-03-04T20:17:56.683Z,77.20
2019-03-04T20:20:23.680Z,77.70
2019-03-04T20:22:50.582Z,78.00
2019-03-04T20:25:17.765Z,77.90
2019-03-04T20:27:44.910Z,77.30
2019-03-04T20:30:16.517Z,73.30
2019-03-04T20:32:43.243Z,72.10
2019-03-04T20:35:12.794Z,64.80
2019-03-04T20:37:44.673Z,59.80
2019-03-04T20:40:11.548Z,51.80
2019-03-04T20:42:38.399Z,56.20
2019-03-04T20:45:10.572Z,58.80
2019-03-04T20:47:37.320Z,58.10
2019-03-04T20:50:09.287Z,62.30
2019-03-04T20:52:36.057Z,62.80
2019-03-04T20:55:06.464Z,64.10
2019-03-04T20:57:33.206Z,66.20
2019-03-04T20:59:59.938Z,69.00
2019-03-04T21:02:27.299Z,70.30
2019-03-04T21:04:54.017Z,70.10
2019-03-04T21:07:20.880Z,70.00
2019-03-04T21:09:47.655Z,69.90
2019-03-04T21:12:14.392Z,70.10
2019-03-04T21:14:41.357Z,69.90
2019-03-04T21:17:08.258Z,70.00
2019-03-04T21:19:35.003Z,70.20
2019-03-04T21:22:01.781Z,70.20
2019-03-04T21:24:28.514Z,70.50
2019-03-04T21:26:55.430Z,70.00
2019-03-04T21:29:33.719Z,70.20
2019-03-04T21:32:15.129Z,70.80
2019-03-04T21:35:20.741Z,73.00
2019-03-04T21:37:47.781Z,73.20
2019-03-04T21:40:22.721Z,74.10
2019-03-04T21:43:13.897Z,74.50
2019-03-04T21:45:57.332Z,74.60
2019-03-04T21:48:32.389Z,72.00
2019-03-04T21:51:37.612Z,71.20
2019-03-04T21:53:56.008Z,71.50
2019-03-04T21:56:37.151Z,71.30
2019-03-04T21:59:06.385Z,70.60
2019-03-04T22:01:41.513Z,68.90
2019-03-04T22:04:08.290Z,68.60
2019-03-04T22:06:35.425Z,68.00
2019-03-04T22:09:04.034Z,68.80
2019-03-04T22:11:30.875Z,71.00
2019-03-04T22:13:57.623Z,68.60
2019-03-04T22:16:24.397Z,68.90
2019-03-04T22:18:51.131Z,66.50
2019-03-04T22:21:17.846Z,66.40
2019-03-04T22:23:44.723Z,68.50
2019-03-04T22:26:11.442Z,69.80
2019-03-04T22:28:38.333Z,68.50
2019-03-04T22:31:05.164Z,71.20
2019-03-04T22:33:31.912Z,71.10
2019-03-04T22:35:58.650Z,72.50
2019-03-04T22:38:25.473Z,72.50
2019-03-04T22:40:52.281Z,72.80
2019-03-04T22:43:19.021Z,73.30
2019-03-04T22:45:45.762Z,72.00
2019-03-04T22:48:12.545Z,71.60
2019-03-04T22:50:39.262Z,72.40
2019-03-04T22:53:06.131Z,72.80
2019-03-04T22:55:36.991Z,73.70
2019-03-04T22:58:05.414Z,72.70
2019-03-04T23:00:52.781Z,73.60
2019-03-04T23:03:27.283Z,73.70
2019-03-04T23:06:10.584Z,73.60
2019-03-04T23:08:37.315Z,73.60
2019-03-04T23:11:04.063Z,73.60
2019-03-04T23:13:41.589Z,73.50
2019-03-04T23:16:09.421Z,73.40
2019-03-04T23:18:36.138Z,73.40
2019-03-04T23:21:03.212Z,73.50
2019-03-04T23:23:29.949Z,73.40
2019-03-04T23:25:56.753Z,73.30
2019-03-04T23:28:23.486Z,73.60
2019-03-04T23:30:50.218Z,73.20
2019-03-04T23:33:17.030Z,73.10
2019-03-04T23:35:43.771Z,73.10
2019-03-04T23:38:10.505Z,73.00
2019-03-04T23:40:37.285Z,72.90
2019-03-04T23:43:04.025Z,72.20
2019-03-04T23:45:30.982Z,72.70
2019-03-04T23:47:57.766Z,72.50
2019-03-04T23:50:24.476Z,72.30
2019-03-04T23:52:51.317Z,72.70
2019-03-04T23:55:18.881Z,72.20
2019-03-04T23:57:45.610Z,72.30
